createdAt,value
2022-11-02T00:01:44.974Z,100787.38
2022-11-02T00:05:46.693Z,100795.44
2022-11-02T00:09:48.561Z,100788.31
2022-11-02T00:13:50.734Z,100780.06
2022-11-02T00:17:58.454Z,100784.50
2022-11-02T00:22:01.953Z,100778.97
2022-11-02T00:26:04.404Z,100792.22
2022-11-02T00:30:06.817Z,100787.13
2022-11-02T00:34:08.736Z,100793.81
2022-11-02T00:38:10.527Z,100787.69
2022-11-02T00:42:12.409Z,100787.22
2022-11-02T00:46:14.553Z,100789.25
2022-11-02T00:50:17.280Z,100792.72
2022-11-02T00:54:20.096Z,100787.78
2022-11-02T00:58:25.288Z,100796.81
2022-11-02T01:02:27.474Z,100787.88
2022-11-02T01:06:29.445Z,100788.56
2022-11-02T01:10:31.143Z,100778.63
2022-11-02T01:14:33.301Z,100792.88
2022-11-02T01:18:35.288Z,100778.28
2022-11-02T01:22:37.164Z,100782.97
2022-11-02T01:26:38.844Z,100785.34
2022-11-02T01:30:40.755Z,100782.34
2022-11-02T01:34:42.854Z,100778.72
2022-11-02T01:38:44.903Z,100787.03
2022-11-02T01:42:46.562Z,100775.91
2022-11-02T01:46:48.494Z,100780.59
2022-11-02T01:50:50.447Z,100778.03
2022-11-02T01:54:56.079Z,100771.94
2022-11-02T01:59:01.761Z,100772.94
2022-11-02T02:03:10.260Z,100778.47
2022-11-02T02:07:14.538Z,100778.28
2022-11-02T02:11:34.727Z,100779.56
2022-11-02T02:15:48.617Z,100778.22
2022-11-02T02:19:58.701Z,100784.81
2022-11-02T02:24:20.847Z,100783.97
2022-11-02T02:28:38.925Z,100778.28
2022-11-02T02:32:57.286Z,100779.22
2022-11-02T02:37:07.805Z,100787.78
2022-11-02T02:41:29.248Z,100782.09
2022-11-02T02:45:44.613Z,100792.19
2022-11-02T02:49:54.321Z,100793.53
2022-11-02T02:54:17.832Z,100799.22
2022-11-02T02:58:24.543Z,100799.22
2022-11-02T03:02:36.386Z,100807.53
2022-11-02T03:06:38.956Z,100815.41
2022-11-02T03:10:55.094Z,100804.56
2022-11-02T03:15:15.047Z,100806.91
2022-11-02T03:19:24.570Z,100797.34
2022-11-02T03:23:33.141Z,100805.25
2022-11-02T03:27:54.338Z,100817.63
2022-11-02T03:32:08.110Z,100824.00
2022-11-02T03:36:18.937Z,100813.63
2022-11-02T03:40:28.874Z,100810.38
2022-11-02T03:44:35.673Z,100813.34
2022-11-02T03:48:44.234Z,100822.56
2022-11-02T03:52:53.590Z,100820.81
2022-11-02T04:01:11.601Z,100830.16
2022-11-02T04:05:14.959Z,100826.25
2022-11-02T04:09:18.033Z,100835.91
2022-11-02T04:13:39.236Z,100829.00
2022-11-02T04:18:00.196Z,100827.63
2022-11-02T04:22:20.805Z,100829.00
2022-11-02T04:26:27.834Z,100834.28
2022-11-02T04:30:29.904Z,100840.63
2022-11-02T04:34:33.913Z,100840.09
2022-11-02T04:38:42.317Z,100832.13
2022-11-02T04:43:13.756Z,100833.56
2022-11-02T04:47:16.242Z,100833.84
2022-11-02T04:51:20.695Z,100835.00
2022-11-02T04:55:23.066Z,100838.75
2022-11-02T04:59:25.537Z,100837.56
2022-11-02T05:03:28.211Z,100836.31
2022-11-02T05:07:30.152Z,100850.81
2022-11-02T05:11:32.554Z,100840.19
2022-11-02T05:15:35.131Z,100844.59
2022-11-02T05:19:40.439Z,100850.38
2022-11-02T05:23:42.408Z,100861.63
2022-11-02T05:27:44.740Z,100860.81
2022-11-02T05:31:47.341Z,100862.50
2022-11-02T05:35:49.200Z,100876.19
2022-11-02T05:39:51.198Z,100878.50
2022-11-02T05:43:53.514Z,100886.72
2022-11-02T05:48:00.436Z,100888.50
2022-11-02T05:52:02.076Z,100883.06
2022-11-02T05:56:09.816Z,100889.38
2022-11-02T06:00:11.978Z,100901.00
2022-11-02T06:04:14.304Z,100901.78
2022-11-02T06:08:16.093Z,100905.91
2022-11-02T06:12:18.398Z,100907.63
2022-11-02T06:16:23.327Z,100903.88
2022-11-02T06:20:25.692Z,100905.47
2022-11-02T06:24:27.360Z,100893.44
2022-11-02T06:28:29.960Z,100901.06
2022-11-02T06:32:32.633Z,100912.06
2022-11-02T06:36:34.473Z,100916.88
2022-11-02T06:40:36.092Z,100920.84
2022-11-02T06:44:38.170Z,100927.88
2022-11-02T06:48:40.112Z,100924.22
2022-11-02T06:52:46.918Z,100915.47
2022-11-02T06:56:48.760Z,100915.75
2022-11-02T07:00:51.147Z,100920.28
2022-11-02T07:04:52.820Z,100914.72
2022-11-02T07:08:55.440Z,100909.94
2022-11-02T07:12:57.864Z,100910.66
2022-11-02T07:16:59.687Z,100915.56
2022-11-02T07:21:02.519Z,100900.91
2022-11-02T07:25:04.930Z,100902.88
2022-11-02T07:29:06.596Z,100891.06
2022-11-02T07:33:08.816Z,100886.44
2022-11-02T07:37:10.622Z,100879.56
2022-11-02T07:41:12.592Z,100877.06
2022-11-02T07:45:14.442Z,100857.03
2022-11-02T07:49:21.269Z,100857.28
2022-11-02T07:53:23.330Z,100854.34
2022-11-02T07:57:25.246Z,100851.59
2022-11-02T08:01:26.903Z,100842.84
2022-11-02T08:05:30.867Z,100840.44
2022-11-02T08:09:32.631Z,100846.28
2022-11-02T08:13:45.282Z,100844.75
2022-11-02T08:17:47.001Z,100841.78
2022-11-02T08:21:49.629Z,100833.59
2022-11-02T08:25:52.413Z,100817.44
2022-11-02T08:29:55.370Z,100816.59
2022-11-02T08:33:58.520Z,100808.38
2022-11-02T08:38:00.557Z,100808.97
2022-11-02T08:42:02.151Z,100810.69
2022-11-02T08:46:19.919Z,100813.66
2022-11-02T08:50:22.371Z,100817.19
2022-11-02T08:54:24.406Z,100805.22
2022-11-02T08:58:26.434Z,100808.09
2022-11-02T09:02:28.417Z,100808.81
2022-11-02T09:06:30.087Z,100813.34
2022-11-02T09:10:34.248Z,100817.56
2022-11-02T09:14:35.838Z,100813.03
2022-11-02T09:18:38.208Z,100808.69
2022-11-02T09:22:39.842Z,100811.09
2022-11-02T09:26:41.814Z,100810.88
2022-11-02T09:30:43.844Z,100822.97
2022-11-02T09:34:47.453Z,100823.84
2022-11-02T09:38:49.754Z,100815.63
2022-11-02T09:43:03.232Z,100821.31
2022-11-02T09:47:49.923Z,100805.13
2022-11-02T09:51:42.892Z,100822.56
2022-11-02T09:55:52.259Z,100846.38
2022-11-02T09:59:54.583Z,100838.03
2022-11-02T10:04:20.900Z,100823.47
2022-11-02T10:08:26.720Z,100823.84
2022-11-02T10:12:41.908Z,100827.75
2022-11-02T10:16:57.178Z,100839.72
2022-11-02T10:21:02.515Z,100839.19
2022-11-02T10:25:06.817Z,100839.00
2022-11-02T10:29:18.212Z,100820.28
2022-11-02T10:33:28.702Z,100827.16
2022-11-02T10:37:42.454Z,100826.00
2022-11-02T10:42:17.735Z,100823.16
2022-11-02T10:46:38.259Z,100831.38
2022-11-02T10:50:57.088Z,100827.72
2022-11-02T10:54:58.774Z,100831.91
2022-11-02T10:59:16.229Z,100825.38
2022-11-02T11:03:19.261Z,100825.78
2022-11-02T11:07:27.252Z,100834.78
2022-11-02T11:11:33.653Z,100831.06
2022-11-02T11:15:51.455Z,100825.22
2022-11-02T11:19:55.998Z,100834.66
2022-11-02T11:24:22.178Z,100833.59
2022-11-02T11:28:44.222Z,100842.03
2022-11-02T11:32:47.783Z,100827.81
2022-11-02T11:36:49.428Z,100840.38
2022-11-02T11:40:54.635Z,100855.34
2022-11-02T11:45:04.362Z,100852.03
2022-11-02T11:49:20.808Z,100844.66
2022-11-02T11:53:26.410Z,100844.72
2022-11-02T11:57:31.473Z,100870.25
2022-11-02T12:01:40.325Z,100882.91
2022-11-02T12:06:30.204Z,100884.44
2022-11-02T12:11:01.593Z,100880.44
2022-11-02T12:15:30.905Z,100867.13
2022-11-02T12:20:03.753Z,100831.59
2022-11-02T12:24:31.738Z,100827.81
2022-11-02T12:28:55.220Z,100827.06
2022-11-02T12:33:08.477Z,100842.69
2022-11-02T12:37:41.373Z,100835.59
2022-11-02T12:41:54.088Z,100849.66
2022-11-02T12:46:04.764Z,100855.03
2022-11-02T12:50:25.220Z,100861.59
2022-11-02T12:54:40.574Z,100851.34
2022-11-02T12:58:44.542Z,100852.94
2022-11-02T13:03:04.908Z,100842.88
2022-11-02T13:07:13.429Z,100839.38
2022-11-02T13:11:42.141Z,100830.09
2022-11-02T13:15:47.712Z,100816.47
2022-11-02T13:19:57.583Z,100801.06
2022-11-02T13:24:00.999Z,100796.84
2022-11-02T13:28:09.970Z,100806.56
2022-11-02T13:32:32.462Z,100808.03
2022-11-02T13:36:39.517Z,100807.16
2022-11-02T13:40:57.978Z,100818.16
2022-11-02T13:45:17.689Z,100819.38
2022-11-02T13:49:43.979Z,100818.97
2022-11-02T13:53:58.717Z,100817.19
2022-11-02T13:58:00.966Z,100823.22
2022-11-02T14:02:04.513Z,100853.78
2022-11-02T14:06:12.735Z,100868.16
2022-11-02T14:10:17.342Z,100869.31
2022-11-02T14:14:20.733Z,100853.34
2022-11-02T14:18:31.329Z,100841.41
2022-11-02T14:22:33.622Z,100852.75
2022-11-02T14:26:54.656Z,100840.19
2022-11-02T14:30:56.594Z,100834.03
2022-11-02T14:35:23.513Z,100813.06
2022-11-02T14:39:43.596Z,100816.34
2022-11-02T14:44:00.771Z,100815.47
2022-11-02T14:48:05.143Z,100804.47
2022-11-02T14:52:13.850Z,100804.88
2022-11-02T14:56:15.871Z,100812.31
2022-11-02T15:00:27.788Z,100819.28
2022-11-02T15:04:33.337Z,100812.78
2022-11-02T15:08:48.080Z,100819.19
2022-11-02T15:12:50.148Z,100820.78
2022-11-02T15:16:52.907Z,100828.31
2022-11-02T15:21:10.313Z,100834.53
2022-11-02T15:25:20.147Z,100841.38
2022-11-02T15:29:34.447Z,100846.22
2022-11-02T15:33:42.317Z,100871.22
2022-11-02T15:38:03.461Z,100866.78
2022-11-02T15:42:34.426Z,100881.28
2022-11-02T15:46:49.275Z,100888.94
2022-11-02T15:50:58.456Z,100898.22
2022-11-02T15:55:19.121Z,100908.09
2022-11-02T15:59:37.332Z,100914.63
2022-11-02T16:03:47.737Z,100908.66
2022-11-02T16:08:10.050Z,100911.06
2022-11-02T16:12:18.992Z,100920.19
2022-11-02T16:16:21.522Z,100919.25
2022-11-02T16:20:33.769Z,100922.34
2022-11-02T16:24:35.856Z,100930.53
2022-11-02T16:28:39.084Z,100918.81
2022-11-02T16:32:40.889Z,100926.75
2022-11-02T16:36:43.077Z,100928.63
2022-11-02T16:40:45.649Z,100930.94
2022-11-02T16:44:55.689Z,100947.66
2022-11-02T16:49:07.524Z,100942.16
2022-11-02T16:53:29.324Z,100951.16
2022-11-02T16:57:34.174Z,100942.91
2022-11-02T17:01:39.351Z,100946.88
2022-11-02T17:05:43.148Z,100955.44
2022-11-02T17:09:52.119Z,100962.06
2022-11-02T17:13:55.825Z,100962.47
2022-11-02T17:18:10.077Z,100968.09
2022-11-02T17:22:21.157Z,100973.63
2022-11-02T17:26:23.306Z,100977.78
2022-11-02T17:30:35.301Z,100977.06
2022-11-02T17:34:37.508Z,100974.31
2022-11-02T17:38:39.769Z,100975.22
2022-11-02T17:43:00.854Z,100979.03
2022-11-02T17:47:05.742Z,100982.56
2022-11-02T17:51:12.007Z,100978.47
2022-11-02T17:55:16.562Z,100972.16
2022-11-02T17:59:19.029Z,100985.50
2022-11-02T18:03:25.576Z,100983.16
2022-11-02T18:07:30.469Z,100984.16
2022-11-02T18:11:32.530Z,100987.91
2022-11-02T18:15:34.880Z,100986.44
2022-11-02T18:19:36.606Z,100984.16
2022-11-02T18:23:40.776Z,100993.81
2022-11-02T18:27:42.743Z,100993.44
2022-11-02T18:31:44.840Z,100986.78
2022-11-02T18:35:47.217Z,100984.75
2022-11-02T18:39:49.683Z,100987.63
2022-11-02T18:43:51.655Z,100981.69
2022-11-02T18:47:56.217Z,100976.16
2022-11-02T18:51:58.060Z,100967.78
2022-11-02T18:56:04.447Z,100951.84
2022-11-02T19:00:06.919Z,100907.44
2022-11-02T19:04:15.992Z,100900.38
2022-11-02T19:08:41.852Z,100898.25
2022-11-02T19:12:43.955Z,100881.91
2022-11-02T19:16:45.702Z,100886.16
2022-11-02T19:20:47.673Z,100901.09
2022-11-02T19:24:50.092Z,100905.66
2022-11-02T19:28:52.071Z,100916.25
2022-11-02T19:32:53.961Z,100909.97
2022-11-02T19:36:56.300Z,100914.31
2022-11-02T19:41:02.478Z,100918.88
2022-11-02T19:45:05.630Z,100932.19
2022-11-02T19:49:07.830Z,100945.59
2022-11-02T19:53:09.729Z,100957.47
2022-11-02T19:57:11.336Z,100955.34
2022-11-02T20:01:16.686Z,100953.97
2022-11-02T20:05:18.505Z,100954.69
2022-11-02T20:09:20.587Z,100963.66
2022-11-02T20:13:22.263Z,100958.34
2022-11-02T20:17:32.022Z,100954.53
2022-11-02T20:21:43.291Z,100968.97
2022-11-02T20:25:47.100Z,100967.50
2022-11-02T20:29:48.786Z,100972.09
2022-11-02T20:33:51.564Z,100977.88
2022-11-02T20:37:53.936Z,100971.59
2022-11-02T20:41:57.228Z,100967.53
2022-11-02T20:50:28.676Z,100965.56
2022-11-02T20:54:30.500Z,100978.56
2022-11-02T20:58:32.982Z,100967.28
2022-11-02T21:02:35.146Z,100961.50
2022-11-02T21:06:37.338Z,100973.91
2022-11-02T21:10:39.388Z,100967.59
2022-11-02T21:14:41.369Z,100973.25
2022-11-02T21:18:43.020Z,100981.97
2022-11-02T21:22:45.055Z,100987.53
2022-11-02T21:26:46.754Z,100976.44
2022-11-02T21:30:48.799Z,100975.63
2022-11-02T21:34:50.558Z,100983.16
2022-11-02T21:38:52.657Z,100989.34
2022-11-02T21:42:54.385Z,100996.59
2022-11-02T21:46:56.921Z,101006.31
2022-11-02T21:51:09.358Z,101011.03
2022-11-02T21:55:11.825Z,101007.63
2022-11-02T21:59:13.518Z,101027.88
2022-11-02T22:03:15.628Z,101036.34
2022-11-02T22:07:17.365Z,101036.09
2022-11-02T22:11:22.505Z,101038.16
2022-11-02T22:15:24.202Z,101059.19
2022-11-02T22:19:26.104Z,101067.56
2022-11-02T22:23:28.086Z,101062.44
2022-11-02T22:27:30.183Z,101052.22
2022-11-02T22:31:37.499Z,101059.72
2022-11-02T22:35:40.132Z,101056.69
2022-11-02T22:39:43.471Z,101060.84
2022-11-02T22:43:45.643Z,101065.88
2022-11-02T22:47:47.300Z,101069.88
2022-11-02T22:51:50.549Z,101061.94
2022-11-02T22:56:07.729Z,101049.16
2022-11-02T23:00:10.459Z,101039.63
2022-11-02T23:04:12.527Z,101038.00
2022-11-02T23:08:14.680Z,101038.69
2022-11-02T23:12:16.341Z,101032.22
2022-11-02T23:16:22.267Z,101028.53
2022-11-02T23:20:23.958Z,101037.13
2022-11-02T23:24:44.818Z,101022.91
2022-11-02T23:29:05.318Z,101026.94
2022-11-02T23:33:07.727Z,101026.00
2022-11-02T23:37:09.846Z,101025.72
2022-11-02T23:41:11.816Z,101025.38
2022-11-02T23:45:13.485Z,101030.41
2022-11-02T23:49:18.386Z,101027.53
2022-11-02T23:53:42.195Z,101017.75
2022-11-02T23:57:44.345Z,101025.34
